Time;durP1;ratioP1;P1;durP2;ratioP2;P2;SDS_P1;SDS_P2;PMS_P1;PMS_P2;Temp;Humidity;BMP_temperature;BMP_pressure;BME280_temperature;BME280_humidity;BME280_pressure;Samples;Min_cycle;Max_cycle;Signal;HPM_P1;HPM_P2
2021/03/02 00:00:11;;;;;;;13.35;8.25;;;4.30;1.00;;;;;;4904923;29;20059;-80
2021/03/02 00:02:41;;;;;;;13.35;8.05;;;4.50;1.00;;;;;;4902600;29;20080;-81
2021/03/02 00:05:09;;;;;;;16.63;7.85;;;4.60;1.00;;;;;;4902852;29;20135;-80
2021/03/02 00:07:37;;;;;;;13.32;8.00;;;4.50;1.00;;;;;;4898143;29;20048;-81
2021/03/02 00:10:05;;;;;;;11.73;7.22;;;4.30;1.00;;;;;;4908455;29;20144;-80
2021/03/02 00:12:38;;;;;;;13.63;7.55;;;4.30;1.00;;;;;;4904761;29;20392;-80
2021/03/02 00:15:07;;;;;;;13.20;7.90;;;4.30;1.00;;;;;;4899864;29;20068;-79
2021/03/02 00:17:36;;;;;;;14.57;7.95;;;4.10;1.00;;;;;;4903141;29;20719;-80
2021/03/02 00:20:10;;;;;;;14.50;8.65;;;4.00;1.00;;;;;;4902895;29;20526;-80
2021/03/02 00:22:47;;;;;;;14.63;8.15;;;4.00;1.00;;;;;;4901393;29;20076;-81
2021/03/02 00:25:15;;;;;;;12.68;7.93;;;3.90;1.00;;;;;;4902584;29;20053;-81
2021/03/02 00:27:44;;;;;;;17.88;9.00;;;4.10;1.00;;;;;;4905334;29;20056;-81
2021/03/02 00:30:12;;;;;;;12.23;8.15;;;4.10;1.00;;;;;;4903493;29;20131;-81
2021/03/02 00:32:40;;;;;;;15.18;8.43;;;4.10;1.00;;;;;;4901199;29;20053;-82
2021/03/02 00:35:08;;;;;;;15.07;8.68;;;3.90;1.00;;;;;;4898481;29;20052;-81
2021/03/02 00:37:35;;;;;;;16.30;8.93;;;4.00;1.00;;;;;;4901729;29;20052;-78
2021/03/02 00:40:03;;;;;;;13.20;7.72;;;3.90;1.00;;;;;;4905040;29;20056;-80
2021/03/02 00:42:48;;;;;;;13.52;8.27;;;3.80;1.00;;;;;;4900646;29;20207;-79
2021/03/02 00:45:16;;;;;;;12.43;7.55;;;3.70;1.00;;;;;;4903778;29;20052;-79
2021/03/02 00:47:43;;;;;;;11.98;7.78;;;3.70;1.00;;;;;;4904868;29;20056;-79
2021/03/02 00:50:10;;;;;;;13.90;8.10;;;3.80;1.00;;;;;;4904284;29;20044;-79
2021/03/02 00:52:38;;;;;;;11.07;7.80;;;3.80;1.00;;;;;;4903104;29;20722;-79
2021/03/02 00:55:06;;;;;;;11.63;7.38;;;3.70;1.00;;;;;;4901204;29;20404;-79
2021/03/02 00:57:34;;;;;;;15.45;8.75;;;3.70;1.00;;;;;;4887100;29;20056;-79
2021/03/02 01:00:02;;;;;;;16.20;8.85;;;3.60;1.00;;;;;;4900420;29;20048;-77
2021/03/02 01:02:29;;;;;;;13.80;8.63;;;3.60;1.00;;;;;;4909062;29;20064;-78
2021/03/02 01:04:56;;;;;;;13.30;8.27;;;3.60;1.00;;;;;;4900399;29;20199;-77
2021/03/02 01:07:23;;;;;;;13.65;8.85;;;3.50;1.00;;;;;;4900772;29;20061;-80
2021/03/02 01:09:50;;;;;;;13.10;7.80;;;3.50;1.30;;;;;;4904529;29;20048;-80
2021/03/02 01:12:17;;;;;;;15.63;8.50;;;3.50;1.00;;;;;;4910677;29;20846;-81
2021/03/02 01:14:44;;;;;;;13.98;7.68;;;3.40;1.50;;;;;;4902779;29;20059;-80
2021/03/02 01:17:12;;;;;;;14.38;8.20;;;3.30;1.60;;;;;;4900664;29;20049;-80
2021/03/02 01:19:39;;;;;;;14.68;8.70;;;3.50;2.40;;;;;;4907907;29;20112;-79
2021/03/02 01:22:06;;;;;;;15.52;9.18;;;3.50;1.50;;;;;;4905414;29;20533;-79
2021/03/02 01:24:33;;;;;;;15.40;8.55;;;3.40;2.00;;;;;;4900405;29;20219;-79
2021/03/02 01:27:00;;;;;;;15.63;8.70;;;3.50;2.20;;;;;;4904538;29;20151;-78
2021/03/02 01:29:27;;;;;;;14.50;8.27;;;3.50;2.50;;;;;;4911805;29;20067;-82
2021/03/02 01:31:54;;;;;;;14.43;8.57;;;3.50;1.70;;;;;;4906988;29;20071;-79
2021/03/02 01:34:22;;;;;;;13.98;9.13;;;3.40;2.20;;;;;;4907711;29;20052;-80
2021/03/02 01:36:49;;;;;;;15.55;8.70;;;3.40;2.80;;;;;;4904772;29;20112;-79
2021/03/02 01:39:16;;;;;;;15.82;8.73;;;3.30;3.10;;;;;;4903218;29;20460;-78
2021/03/02 01:41:44;;;;;;;14.35;8.52;;;3.30;3.20;;;;;;4906893;29;20549;-80
2021/03/02 01:44:11;;;;;;;17.25;8.90;;;3.10;3.40;;;;;;4905342;29;20050;-78
2021/03/02 01:46:38;;;;;;;13.38;8.40;;;3.00;4.10;;;;;;4914060;29;20111;-83
2021/03/02 01:49:06;;;;;;;14.77;8.20;;;3.40;5.00;;;;;;4910226;29;20060;-80
2021/03/02 01:51:34;;;;;;;14.10;8.23;;;3.20;3.80;;;;;;4907229;29;20099;-80
2021/03/02 01:54:02;;;;;;;13.85;8.25;;;3.40;4.30;;;;;;4900070;29;20142;-82
2021/03/02 01:56:32;;;;;;;14.23;8.57;;;3.20;4.00;;;;;;4908266;29;20052;-86
2021/03/02 01:58:59;;;;;;;14.45;9.32;;;3.10;4.50;;;;;;4904476;29;20065;-79
2021/03/02 02:01:26;;;;;;;15.85;9.10;;;3.10;4.80;;;;;;4912693;29;20096;-77
2021/03/02 02:03:58;;;;;;;18.38;9.95;;;3.20;5.30;;;;;;4904491;29;20566;-79
2021/03/02 02:06:30;;;;;;;18.23;10.38;;;3.10;5.30;;;;;;4907471;29;20542;-78
2021/03/02 02:09:05;;;;;;;15.85;8.98;;;3.00;5.50;;;;;;4904948;29;20104;-78
2021/03/02 02:11:42;;;;;;;17.42;9.68;;;3.00;6.10;;;;;;4905719;29;20076;-78
2021/03/02 02:14:14;;;;;;;15.35;9.38;;;2.90;6.50;;;;;;4908923;29;20051;-78
2021/03/02 02:16:44;;;;;;;16.83;9.73;;;2.90;6.80;;;;;;4902723;29;20083;-78
2021/03/02 02:19:32;;;;;;;17.08;9.73;;;2.80;7.60;;;;;;4901699;29;20093;-78
2021/03/02 02:22:10;;;;;;;15.68;10.20;;;2.80;7.60;;;;;;4901995;29;20048;-79
2021/03/02 02:24:48;;;;;;;17.25;9.95;;;2.80;7.80;;;;;;4903846;29;20139;-79
2021/03/02 02:27:16;;;;;;;18.45;10.55;;;3.00;7.70;;;;;;4902758;29;20060;-78
2021/03/02 02:29:43;;;;;;;19.05;9.80;;;2.90;7.50;;;;;;4908762;29;20052;-79
2021/03/02 02:32:11;;;;;;;18.00;9.77;;;3.00;7.70;;;;;;4905112;29;20049;-80
2021/03/02 02:34:40;;;;;;;19.85;11.23;;;3.20;6.70;;;;;;4899511;29;20057;-79
2021/03/02 02:37:10;;;;;;;17.50;10.18;;;3.00;6.20;;;;;;4901158;29;20063;-79
2021/03/02 02:39:39;;;;;;;18.02;10.10;;;2.90;7.40;;;;;;4905257;29;20664;-76
2021/03/02 02:45:55;;;;;;;21.02;10.70;;;2.70;7.60;;;;;;4896299;29;20550;-76
2021/03/02 02:48:23;;;;;;;20.70;10.63;;;2.60;8.40;;;;;;4902636;29;20509;-77
2021/03/02 02:50:52;;;;;;;18.95;10.27;;;2.60;8.40;;;;;;4903874;29;20072;-78
2021/03/02 02:53:19;;;;;;;24.67;11.13;;;2.70;9.60;;;;;;4904315;29;20048;-77
2021/03/02 02:55:51;;;;;;;18.38;10.75;;;2.60;8.80;;;;;;4899455;29;20059;-78
2021/03/02 02:58:22;;;;;;;21.38;10.95;;;2.70;9.10;;;;;;4901956;29;20075;-78
2021/03/02 03:00:52;;;;;;;20.77;11.45;;;2.70;8.80;;;;;;4899900;29;20056;-77
2021/03/02 03:03:23;;;;;;;22.63;10.93;;;2.80;8.70;;;;;;4897498;29;20056;-78
2021/03/02 03:05:55;;;;;;;19.05;11.27;;;2.80;8.60;;;;;;4903340;29;20558;-77
2021/03/02 03:08:24;;;;;;;21.58;11.80;;;2.60;8.70;;;;;;4896299;29;20070;-78
2021/03/02 03:10:53;;;;;;;22.80;11.20;;;2.70;9.10;;;;;;4901019;29;20057;-78
2021/03/02 03:13:26;;;;;;;20.35;11.25;;;2.70;9.00;;;;;;4900643;29;20064;-77
2021/03/02 03:15:56;;;;;;;26.27;12.45;;;2.60;9.70;;;;;;4898648;29;20052;-77
2021/03/02 03:18:28;;;;;;;21.25;12.98;;;2.50;9.80;;;;;;4900048;29;20067;-77
2021/03/02 03:20:58;;;;;;;22.48;12.93;;;2.40;10.80;;;;;;4901555;29;20435;-79
2021/03/02 03:23:26;;;;;;;32.47;15.98;;;2.20;11.70;;;;;;4906733;29;20495;-81
2021/03/02 03:25:53;;;;;;;25.67;14.93;;;2.30;12.70;;;;;;4903987;29;20054;-80
2021/03/02 03:28:23;;;;;;;23.17;13.80;;;2.20;13.30;;;;;;4901799;29;20062;-80
2021/03/02 03:30:51;;;;;;;26.30;15.52;;;2.20;14.30;;;;;;4902927;29;20048;-80
2021/03/02 03:33:20;;;;;;;28.38;15.02;;;2.20;14.40;;;;;;4910642;29;20056;-79
2021/03/02 03:35:48;;;;;;;23.20;14.68;;;2.30;14.60;;;;;;4895790;29;20062;-81
2021/03/02 03:38:14;;;;;;;28.20;15.82;;;2.20;14.30;;;;;;4899196;29;20096;-81
2021/03/02 03:40:41;;;;;;;28.60;15.35;;;2.20;14.30;;;;;;4896831;29;20052;-79
2021/03/02 03:43:09;;;;;;;26.98;15.77;;;2.10;15.20;;;;;;4905272;29;20100;-81
2021/03/02 03:45:36;;;;;;;29.13;16.92;;;2.10;15.60;;;;;;4902641;29;20052;-79
2021/03/02 03:48:03;;;;;;;25.92;15.15;;;2.30;16.60;;;;;;4902109;29;20054;-79
2021/03/02 03:50:30;;;;;;;29.10;15.65;;;2.40;15.00;;;;;;4896080;29;20144;-78
2021/03/02 03:53:01;;;;;;;26.67;15.55;;;2.50;14.90;;;;;;4898528;29;20423;-79
2021/03/02 03:55:31;;;;;;;32.38;15.57;;;2.30;14.40;;;;;;4900323;29;20137;-76
2021/03/02 03:57:58;;;;;;;29.42;16.25;;;2.30;15.80;;;;;;4899817;29;20414;-76
2021/03/02 04:00:26;;;;;;;30.13;16.38;;;2.40;15.00;;;;;;4900625;29;20090;-77
2021/03/02 04:02:53;;;;;;;28.42;16.27;;;2.40;15.00;;;;;;4901310;29;20078;-77
2021/03/02 04:05:21;;;;;;;32.05;15.90;;;2.40;15.10;;;;;;4902088;29;20533;-79
2021/03/02 04:07:49;;;;;;;25.45;14.38;;;2.30;15.20;;;;;;4899346;29;20089;-78
2021/03/02 04:10:17;;;;;;;26.60;14.93;;;2.20;15.50;;;;;;4898254;29;20460;-80
2021/03/02 04:12:46;;;;;;;29.52;15.68;;;2.10;15.70;;;;;;4904885;29;20446;-79
2021/03/02 04:15:28;;;;;;;25.65;15.45;;;2.10;16.10;;;;;;4902047;29;20044;-78
2021/03/02 04:17:57;;;;;;;28.55;15.10;;;1.90;16.80;;;;;;4904928;29;20064;-78
2021/03/02 04:20:25;;;;;;;31.70;16.27;;;2.00;18.40;;;;;;4906236;29;20048;-77
2021/03/02 04:22:55;;;;;;;26.30;15.00;;;2.00;17.40;;;;;;4905845;29;20049;-78
2021/03/02 04:25:23;;;;;;;27.75;16.13;;;2.10;18.50;;;;;;4908931;29;20060;-78
2021/03/02 04:27:50;;;;;;;31.65;15.20;;;2.20;18.00;;;;;;4902161;29;20049;-78
2021/03/02 04:30:17;;;;;;;28.30;15.25;;;2.10;17.00;;;;;;4905753;29;20056;-79
2021/03/02 04:32:44;;;;;;;25.60;15.20;;;2.10;17.70;;;;;;4904282;29;20052;-78
2021/03/02 04:35:12;;;;;;;25.13;15.70;;;2.20;17.00;;;;;;4903234;29;20049;-79
2021/03/02 04:37:39;;;;;;;31.75;16.13;;;2.20;17.40;;;;;;4905354;29;20048;-78
2021/03/02 04:40:07;;;;;;;32.92;15.80;;;2.20;17.40;;;;;;4908243;29;20056;-78
2021/03/02 04:42:36;;;;;;;28.80;15.55;;;2.10;17.00;;;;;;4904887;29;20104;-78
2021/03/02 04:45:04;;;;;;;30.85;16.10;;;2.30;16.80;;;;;;4911077;29;20048;-75
2021/03/02 04:47:31;;;;;;;27.20;15.32;;;2.30;17.00;;;;;;4900669;29;20530;-75
2021/03/02 04:49:59;;;;;;;29.35;16.08;;;2.30;16.40;;;;;;4908637;29;20048;-75
2021/03/02 04:52:25;;;;;;;35.97;16.27;;;2.30;16.40;;;;;;4911444;29;21446;-75
2021/03/02 04:54:52;;;;;;;30.80;15.45;;;2.40;16.20;;;;;;4908306;29;20059;-76
2021/03/02 04:57:19;;;;;;;30.63;17.00;;;2.40;17.00;;;;;;4899350;29;20052;-75
2021/03/02 04:59:47;;;;;;;24.98;15.25;;;2.40;15.90;;;;;;4907601;29;20056;-79
2021/03/02 05:02:14;;;;;;;28.90;16.40;;;2.30;15.60;;;;;;4902218;29;20057;-79
2021/03/02 05:04:41;;;;;;;26.58;15.35;;;2.20;16.50;;;;;;4909406;29;20072;-80
2021/03/02 05:07:08;;;;;;;28.88;16.83;;;2.10;17.10;;;;;;4906819;29;20060;-78
2021/03/02 05:09:35;;;;;;;30.17;16.33;;;2.10;17.40;;;;;;4913524;29;20514;-81
2021/03/02 05:12:02;;;;;;;27.08;15.88;;;2.10;18.10;;;;;;4909541;29;20065;-78
2021/03/02 05:14:29;;;;;;;29.80;17.02;;;2.20;18.50;;;;;;4904740;29;20419;-83
2021/03/02 05:16:57;;;;;;;33.70;16.98;;;2.10;17.60;;;;;;4906534;29;20052;-80
2021/03/02 05:19:24;;;;;;;27.38;16.92;;;2.10;18.50;;;;;;4910954;29;20107;-79
2021/03/02 05:21:51;;;;;;;42.53;16.08;;;2.10;18.30;;;;;;4916024;29;20067;-79
2021/03/02 05:24:18;;;;;;;31.17;16.88;;;2.20;18.80;;;;;;4908638;29;20048;-80
2021/03/02 05:26:45;;;;;;;28.77;16.02;;;2.10;18.30;;;;;;4908064;29;20071;-83
2021/03/02 05:29:12;;;;;;;34.90;17.42;;;2.00;18.60;;;;;;4910964;29;20055;-79
2021/03/02 05:31:39;;;;;;;35.92;17.25;;;2.00;19.10;;;;;;4909752;29;20416;-79
2021/03/02 05:34:07;;;;;;;27.45;16.55;;;2.00;18.90;;;;;;4903954;29;20044;-77
2021/03/02 05:36:34;;;;;;;28.10;16.30;;;1.90;19.10;;;;;;4911738;29;20071;-79
2021/03/02 05:39:01;;;;;;;32.92;17.38;;;1.90;20.20;;;;;;4907574;29;20048;-77
2021/03/02 05:41:31;;;;;;;29.48;16.63;;;1.90;20.20;;;;;;4907222;29;20056;-78
2021/03/02 05:43:58;;;;;;;30.80;17.38;;;1.90;20.10;;;;;;4914183;29;20054;-82
2021/03/02 05:46:34;;;;;;;29.98;15.95;;;1.90;20.70;;;;;;4904650;29;20067;-80
2021/03/02 05:49:01;;;;;;;29.85;16.05;;;2.00;20.30;;;;;;4911518;29;20535;-80
2021/03/02 05:51:32;;;;;;;30.17;16.73;;;1.90;19.50;;;;;;4910889;29;20059;-82
2021/03/02 05:53:59;;;;;;;27.00;15.82;;;1.90;20.30;;;;;;4907217;29;20456;-80
2021/03/02 05:56:26;;;;;;;28.58;16.13;;;1.80;20.10;;;;;;4902311;29;20057;-78
2021/03/02 05:58:53;;;;;;;28.55;15.77;;;1.80;20.70;;;;;;4904038;29;20052;-79
2021/03/02 06:01:20;;;;;;;27.65;15.07;;;1.80;21.00;;;;;;4906319;29;20060;-77
2021/03/02 06:03:48;;;;;;;29.42;16.50;;;1.70;20.90;;;;;;4907261;29;20135;-80
2021/03/02 06:06:15;;;;;;;34.60;17.00;;;1.70;21.00;;;;;;4899437;29;20067;-80
2021/03/02 06:08:45;;;;;;;32.47;16.63;;;1.70;21.00;;;;;;4904947;29;20077;-77
2021/03/02 06:11:26;;;;;;;30.33;15.95;;;1.70;21.50;;;;;;4901090;29;20052;-78
2021/03/02 06:13:53;;;;;;;28.85;17.05;;;1.80;21.00;;;;;;4904626;29;20056;-77
2021/03/02 06:16:21;;;;;;;28.23;16.65;;;1.70;20.90;;;;;;4892650;29;20055;-78
2021/03/02 06:18:49;;;;;;;25.15;15.80;;;1.80;21.00;;;;;;4907083;29;20139;-78
2021/03/02 06:21:17;;;;;;;28.35;16.38;;;1.70;20.90;;;;;;4901403;29;20074;-78
2021/03/02 06:23:50;;;;;;;28.45;16.17;;;1.80;21.00;;;;;;4903573;29;20092;-77
2021/03/02 06:26:24;;;;;;;31.00;17.08;;;1.80;21.00;;;;;;4905890;29;20063;-77
2021/03/02 06:28:53;;;;;;;30.05;16.13;;;1.80;20.60;;;;;;4904113;29;20048;-79
2021/03/02 06:31:38;;;;;;;30.25;16.73;;;1.90;20.30;;;;;;4905192;29;20055;-76
2021/03/02 06:34:12;;;;;;;29.85;16.13;;;1.90;20.30;;;;;;4905710;29;20052;-77
2021/03/02 06:36:41;;;;;;;30.38;16.15;;;2.00;19.60;;;;;;4900353;29;20448;-76
2021/03/02 06:39:40;;;;;;;27.33;15.63;;;2.10;18.80;;;;;;4910186;29;20146;-76
2021/03/02 06:42:17;;;;;;;29.83;15.60;;;2.20;18.50;;;;;;4902239;29;20044;-77
2021/03/02 06:44:46;;;;;;;30.30;16.17;;;2.30;17.90;;;;;;4898498;29;20456;-76
2021/03/02 06:47:31;;;;;;;26.65;15.45;;;2.30;17.60;;;;;;4898816;29;20633;-76
2021/03/02 06:49:59;;;;;;;26.70;14.90;;;2.40;17.00;;;;;;4903530;29;20112;-76
2021/03/02 06:52:35;;;;;;;25.50;15.00;;;2.50;16.80;;;;;;4910133;29;20071;-76
2021/03/02 06:55:20;;;;;;;24.10;14.35;;;2.50;16.00;;;;;;4906649;29;20483;-77
2021/03/02 06:57:49;;;;;;;25.98;14.45;;;2.50;16.10;;;;;;4897541;29;20044;-76
2021/03/02 07:00:30;;;;;;;28.55;15.98;;;2.50;15.90;;;;;;4903770;29;20067;-77
2021/03/02 07:02:57;;;;;;;22.73;12.77;;;2.60;15.40;;;;;;4900016;29;20503;-75
2021/03/02 07:05:24;;;;;;;22.95;14.15;;;2.70;14.60;;;;;;4903301;29;20149;-76
2021/03/02 07:07:55;;;;;;;37.65;14.45;;;2.80;14.70;;;;;;4899112;29;21423;-76
2021/03/02 07:10:24;;;;;;;24.85;13.90;;;2.90;14.20;;;;;;4902280;29;20056;-78
2021/03/02 07:12:54;;;;;;;30.00;13.95;;;2.90;13.20;;;;;;4901236;29;20048;-76
2021/03/02 07:15:24;;;;;;;35.05;14.95;;;3.00;12.10;;;;;;4903045;29;20052;-76
2021/03/02 07:17:54;;;;;;;26.63;13.20;;;3.10;11.50;;;;;;4894595;29;20049;-76
2021/03/02 07:20:23;;;;;;;25.90;13.50;;;3.20;11.20;;;;;;4902398;29;20066;-76
2021/03/02 07:22:52;;;;;;;23.33;13.20;;;3.30;10.50;;;;;;4908161;29;20179;-77
2021/03/02 07:25:20;;;;;;;26.70;13.63;;;3.40;10.00;;;;;;4906873;29;20051;-75
2021/03/02 07:27:50;;;;;;;26.95;13.10;;;3.40;9.60;;;;;;4897334;29;20069;-77
2021/03/02 07:30:18;;;;;;;22.52;11.15;;;3.50;9.50;;;;;;4898224;29;20056;-75
2021/03/02 07:32:48;;;;;;;20.63;12.30;;;3.60;8.60;;;;;;4904530;29;20131;-74
2021/03/02 07:35:18;;;;;;;21.88;11.95;;;3.80;8.20;;;;;;4903845;29;20075;-75
2021/03/02 07:37:45;;;;;;;29.33;13.55;;;3.90;7.30;;;;;;4893429;29;20055;-76
2021/03/02 07:40:14;;;;;;;23.38;12.30;;;3.90;6.40;;;;;;4901055;29;20103;-75
2021/03/02 07:42:42;;;;;;;25.90;12.57;;;4.10;5.70;;;;;;4897044;29;20056;-80
2021/03/02 07:45:12;;;;;;;23.50;11.40;;;4.20;5.10;;;;;;4905499;29;20048;-76
2021/03/02 07:47:57;;;;;;;23.70;12.05;;;4.20;4.70;;;;;;4898160;29;20048;-76
2021/03/02 07:50:26;;;;;;;20.98;11.63;;;4.30;4.20;;;;;;4907286;29;20062;-77
2021/03/02 07:53:21;;;;;;;27.25;11.70;;;4.40;4.20;;;;;;4903288;29;20057;-77
2021/03/02 07:56:22;;;;;;;23.40;12.18;;;4.50;3.60;;;;;;4903445;29;20079;-80
2021/03/02 07:59:19;;;;;;;21.95;11.82;;;4.50;2.70;;;;;;4901619;29;20045;-79
2021/03/02 08:02:16;;;;;;;22.15;10.73;;;4.60;2.80;;;;;;4897839;29;20064;-76
2021/03/02 08:04:47;;;;;;;18.77;11.52;;;4.70;2.20;;;;;;4906222;29;20143;-78
2021/03/02 08:07:22;;;;;;;21.25;10.95;;;4.80;1.50;;;;;;4905780;29;20063;-77
2021/03/02 08:09:52;;;;;;;19.33;11.52;;;4.90;1.50;;;;;;4901276;29;20127;-78
2021/03/02 08:12:31;;;;;;;20.48;11.48;;;5.00;1.60;;;;;;4908089;29;20067;-77
2021/03/02 08:15:00;;;;;;;23.50;12.25;;;5.10;1.60;;;;;;4906953;29;20142;-79
2021/03/02 08:17:33;;;;;;;22.80;11.20;;;5.30;1.50;;;;;;4896196;29;20040;-78
2021/03/02 08:20:10;;;;;;;19.35;11.95;;;5.30;1.20;;;;;;4899685;29;20440;-78
2021/03/02 08:22:51;;;;;;;19.13;11.40;;;5.40;1.00;;;;;;4902567;29;20052;-78
2021/03/02 08:25:27;;;;;;;18.77;11.93;;;5.50;1.00;;;;;;4898396;29;20474;-78
2021/03/02 08:28:04;;;;;;;21.40;11.63;;;5.60;1.00;;;;;;4900854;29;20044;-81
2021/03/02 08:30:34;;;;;;;25.10;11.52;;;5.60;1.00;;;;;;4908219;29;20072;-78
2021/03/02 08:33:06;;;;;;;21.40;11.63;;;5.70;1.00;;;;;;4902393;29;21234;-81
2021/03/02 08:35:39;;;;;;;22.80;11.95;;;5.90;1.00;;;;;;4907105;29;20096;-84
2021/03/02 08:38:08;;;;;;;27.20;13.05;;;6.00;1.00;;;;;;4903307;29;20146;-78
2021/03/02 08:40:47;;;;;;;21.10;11.95;;;6.10;1.00;;;;;;4907496;29;20089;-77
2021/03/02 08:43:19;;;;;;;23.02;12.32;;;6.10;1.00;;;;;;4904026;29;20056;-77
2021/03/02 08:45:51;;;;;;;27.40;13.77;;;6.20;1.00;;;;;;4908205;29;20056;-77
2021/03/02 08:48:30;;;;;;;22.33;12.68;;;6.30;1.00;;;;;;4901268;29;20055;-79
2021/03/02 08:50:59;;;;;;;22.52;13.20;;;6.40;1.00;;;;;;4908611;29;20074;-80
2021/03/02 08:53:32;;;;;;;23.50;12.98;;;6.50;1.00;;;;;;4899481;29;20060;-77
2021/03/02 08:56:01;;;;;;;29.67;16.35;;;6.60;1.00;;;;;;4901463;29;20085;-81
2021/03/02 08:58:30;;;;;;;25.95;12.93;;;6.80;1.00;;;;;;4905431;29;20091;-79
2021/03/02 09:01:03;;;;;;;23.58;13.20;;;6.90;1.00;;;;;;4899196;29;20087;-77
2021/03/02 09:03:33;;;;;;;25.58;12.85;;;6.90;1.00;;;;;;4911873;29;20048;-77
2021/03/02 09:06:11;;;;;;;21.88;12.57;;;7.00;1.00;;;;;;4902706;29;20056;-83
2021/03/02 09:08:50;;;;;;;26.35;13.50;;;7.10;1.00;;;;;;4903225;29;20054;-80
2021/03/02 09:11:20;;;;;;;27.70;13.48;;;7.30;1.00;;;;;;4902437;29;20504;-77
2021/03/02 09:13:48;;;;;;;26.33;14.40;;;7.40;1.00;;;;;;4898959;29;20488;-77
2021/03/02 09:16:32;;;;;;;22.77;13.18;;;7.50;1.00;;;;;;4903918;29;20083;-78
2021/03/02 09:19:15;;;;;;;26.98;12.43;;;7.60;1.00;;;;;;4903362;29;20049;-76
2021/03/02 09:21:44;;;;;;;22.73;12.57;;;7.70;1.00;;;;;;4909761;29;20048;-77
2021/03/02 09:24:16;;;;;;;25.23;13.68;;;7.80;1.00;;;;;;4902148;29;20143;-78
2021/03/02 09:26:51;;;;;;;26.38;12.93;;;7.90;1.00;;;;;;4899811;29;20052;-77
2021/03/02 09:29:18;;;;;;;;;;;7.90;1.00;;;;;;4904003;29;20045;-79
2021/03/02 09:31:46;;;;;;;26.67;12.52;;;8.10;1.00;;;;;;4909197;29;19923;-79
2021/03/02 09:34:14;;;;;;;31.15;14.57;;;8.30;1.00;;;;;;4902229;29;20082;-78
2021/03/02 09:36:41;;;;;;;29.20;16.13;;;8.30;1.00;;;;;;4898413;29;20147;-77
2021/03/02 09:39:23;;;;;;;23.80;13.80;;;8.40;1.00;;;;;;4898804;29;20057;-79
2021/03/02 09:41:52;;;;;;;29.27;13.80;;;8.50;1.00;;;;;;4908731;29;20052;-77
2021/03/02 09:44:31;;;;;;;22.55;12.98;;;8.50;1.00;;;;;;4905215;29;20664;-76
2021/03/02 09:47:01;;;;;;;22.88;13.45;;;8.60;1.00;;;;;;4892729;29;20127;-77
2021/03/02 09:49:36;;;;;;;25.55;14.43;;;8.70;1.00;;;;;;4904168;29;20287;-76
2021/03/02 09:52:05;;;;;;;27.58;14.60;;;8.80;1.00;;;;;;4906045;29;20059;-76
2021/03/02 09:54:32;;;;;;;21.80;13.38;;;8.80;1.00;;;;;;4902131;29;20426;-77
2021/03/02 09:57:01;;;;;;;24.45;13.25;;;8.90;1.00;;;;;;4897901;29;20044;-75
2021/03/02 09:59:29;;;;;;;23.65;12.98;;;9.10;1.00;;;;;;4904169;29;20056;-76
2021/03/02 10:01:57;;;;;;;22.65;13.05;;;9.10;1.00;;;;;;4905129;29;20058;-75
2021/03/02 10:04:25;;;;;;;21.55;12.35;;;9.20;1.00;;;;;;4906826;29;20139;-75
2021/03/02 10:07:12;;;;;;;23.13;13.18;;;9.30;1.00;;;;;;4900703;29;20153;-76
2021/03/02 10:09:47;;;;;;;24.00;13.55;;;9.40;1.00;;;;;;4903586;29;20056;-77
2021/03/02 10:12:15;;;;;;;21.70;12.88;;;9.50;1.00;;;;;;4900695;29;20053;-75
2021/03/02 10:14:43;;;;;;;31.20;12.85;;;9.70;1.00;;;;;;4906866;29;20047;-76
2021/03/02 10:17:14;;;;;;;26.90;13.38;;;9.70;1.00;;;;;;4902134;29;20060;-75
2021/03/02 10:20:05;;;;;;;20.38;12.77;;;9.80;1.00;;;;;;4903957;29;20048;-77
2021/03/02 10:22:33;;;;;;;22.63;12.52;;;10.00;1.00;;;;;;4907559;29;20562;-76
2021/03/02 10:25:03;;;;;;;21.13;11.88;;;10.10;1.00;;;;;;4902582;29;20053;-77
2021/03/02 10:27:30;;;;;;;21.33;12.07;;;10.20;1.00;;;;;;4897391;29;20074;-76
2021/03/02 10:29:59;;;;;;;23.60;12.82;;;10.30;1.00;;;;;;4903735;29;20060;-81
2021/03/02 10:32:26;;;;;;;24.27;14.73;;;10.40;1.00;;;;;;4903510;29;20057;-79
2021/03/02 10:34:53;;;;;;;26.95;14.23;;;10.20;1.00;;;;;;4906993;29;20048;-78
2021/03/02 10:37:20;;;;;;;22.17;13.52;;;10.40;1.00;;;;;;4896737;29;20503;-77
2021/03/02 10:39:48;;;;;;;26.90;13.07;;;10.40;1.00;;;;;;4908330;29;20060;-79
2021/03/02 10:42:18;;;;;;;20.98;12.98;;;10.40;1.00;;;;;;4902023;29;20507;-77
2021/03/02 10:44:46;;;;;;;22.50;13.63;;;10.70;1.00;;;;;;4909988;29;20045;-75
2021/03/02 10:47:13;;;;;;;25.88;14.38;;;10.80;1.00;;;;;;4898310;29;20059;-77
2021/03/02 10:49:40;;;;;;;24.73;14.20;;;10.90;1.00;;;;;;4904328;29;20052;-78
2021/03/02 10:52:07;;;;;;;22.52;12.98;;;11.00;1.00;;;;;;4901602;29;20056;-78
2021/03/02 10:54:36;;;;;;;19.23;12.02;;;11.10;1.00;;;;;;4909056;29;20057;-78
2021/03/02 10:57:04;;;;;;;20.00;12.27;;;11.10;1.00;;;;;;4904406;29;20776;-78
2021/03/02 10:59:31;;;;;;;21.92;12.95;;;11.10;1.00;;;;;;4909594;29;20090;-77
2021/03/02 11:01:58;;;;;;;21.05;12.40;;;11.20;1.00;;;;;;4902657;29;20088;-77
2021/03/02 11:04:26;;;;;;;20.25;13.05;;;11.20;1.00;;;;;;4907114;29;20071;-76
2021/03/02 11:06:53;;;;;;;23.70;13.68;;;11.30;1.00;;;;;;4897392;29;20171;-78
2021/03/02 11:09:20;;;;;;;20.35;12.00;;;11.40;1.00;;;;;;4901846;29;20399;-78
2021/03/02 11:11:47;;;;;;;16.60;10.90;;;11.60;1.00;;;;;;4903816;29;20658;-78
2021/03/02 11:14:15;;;;;;;17.67;11.70;;;11.70;1.00;;;;;;4905086;29;20060;-79
2021/03/02 11:16:42;;;;;;;18.27;10.23;;;11.50;1.00;;;;;;4899168;29;20059;-77
2021/03/02 11:19:09;;;;;;;17.42;10.35;;;11.60;1.00;;;;;;4906137;29;20055;-77
2021/03/02 11:21:37;;;;;;;17.95;10.90;;;11.70;1.00;;;;;;4908684;29;20136;-77
2021/03/02 11:24:05;;;;;;;17.73;11.52;;;11.80;1.00;;;;;;4904173;29;20055;-78
2021/03/02 11:26:32;;;;;;;17.35;11.18;;;11.80;1.00;;;;;;4903159;29;20087;-77
2021/03/02 11:29:00;;;;;;;23.83;12.00;;;11.80;1.00;;;;;;4900658;29;20059;-77
2021/03/02 11:31:28;;;;;;;19.75;11.30;;;11.70;1.00;;;;;;4907889;29;20070;-78
2021/03/02 11:33:55;;;;;;;20.13;11.95;;;11.80;1.00;;;;;;4902262;29;20067;-75
2021/03/02 11:36:23;;;;;;;20.27;11.63;;;11.90;1.00;;;;;;4903380;29;20052;-77
2021/03/02 11:38:50;;;;;;;17.60;11.85;;;12.00;1.00;;;;;;4898900;29;20044;-77
2021/03/02 11:41:17;;;;;;;20.13;11.52;;;11.90;1.00;;;;;;4904221;29;20488;-77
2021/03/02 11:43:45;;;;;;;18.00;11.15;;;12.00;1.00;;;;;;4905048;29;20052;-76
2021/03/02 11:46:12;;;;;;;19.92;11.32;;;12.10;1.00;;;;;;4903818;29;20052;-79
2021/03/02 11:48:40;;;;;;;17.20;11.05;;;12.00;1.00;;;;;;4897801;29;20521;-78
2021/03/02 11:51:07;;;;;;;19.40;11.40;;;12.00;1.00;;;;;;4905179;29;20058;-77
2021/03/02 11:53:35;;;;;;;19.33;11.13;;;12.20;1.00;;;;;;4904317;29;20485;-77
2021/03/02 11:56:02;;;;;;;20.13;12.52;;;12.10;1.00;;;;;;4908262;29;20051;-77
2021/03/02 11:58:29;;;;;;;18.55;11.75;;;12.20;1.00;;;;;;4899314;29;20145;-75
2021/03/02 12:00:56;;;;;;;20.90;11.63;;;12.30;1.00;;;;;;4902342;29;20139;-77
2021/03/02 12:03:25;;;;;;;18.42;11.75;;;12.40;1.00;;;;;;4905386;29;20048;-77
2021/03/02 12:05:53;;;;;;;17.17;11.45;;;12.40;1.00;;;;;;4902219;29;20052;-76
2021/03/02 12:08:25;;;;;;;17.08;11.10;;;12.50;1.00;;;;;;4898610;29;20052;-77
2021/03/02 12:10:52;;;;;;;22.08;10.75;;;12.30;1.00;;;;;;4904958;29;20392;-78
2021/03/02 12:13:21;;;;;;;20.15;11.70;;;12.30;1.00;;;;;;4906455;29;20055;-77
2021/03/02 12:15:49;;;;;;;22.00;11.70;;;12.40;1.00;;;;;;4901122;29;20492;-78
2021/03/02 12:18:16;;;;;;;19.13;10.77;;;12.50;1.00;;;;;;4895628;29;20060;-78
2021/03/02 12:20:44;;;;;;;20.40;10.85;;;12.70;1.00;;;;;;4896974;29;20135;-77
2021/03/02 12:23:13;;;;;;;22.95;12.40;;;12.60;1.00;;;;;;4907751;29;20169;-77
2021/03/02 12:25:40;;;;;;;20.45;11.63;;;12.60;1.00;;;;;;4900644;29;20048;-76
2021/03/02 12:28:08;;;;;;;23.08;12.30;;;12.60;1.00;;;;;;4897625;29;20048;-78
2021/03/02 12:30:36;;;;;;;22.35;12.20;;;12.60;1.00;;;;;;4900242;29;20052;-77
2021/03/02 12:33:03;;;;;;;19.35;11.88;;;12.80;1.00;;;;;;4902034;29;20163;-77
2021/03/02 12:35:31;;;;;;;27.75;12.20;;;12.70;1.00;;;;;;4906861;29;20126;-76
2021/03/02 12:37:58;;;;;;;17.92;11.73;;;12.80;1.00;;;;;;4902951;29;20051;-77
2021/03/02 12:40:27;;;;;;;18.50;11.80;;;13.00;1.00;;;;;;4910813;29;20056;-77
2021/03/02 12:42:54;;;;;;;18.50;11.35;;;13.00;1.00;;;;;;4911884;29;20071;-76
2021/03/02 12:45:21;;;;;;;20.63;11.52;;;13.00;1.00;;;;;;4908658;29;20052;-77
2021/03/02 12:47:49;;;;;;;19.63;12.63;;;13.00;1.00;;;;;;4902455;29;20040;-76
2021/03/02 12:50:17;;;;;;;18.88;11.93;;;13.10;1.00;;;;;;4908993;29;20147;-77
2021/03/02 12:52:45;;;;;;;19.17;12.32;;;13.20;1.00;;;;;;4904231;29;20438;-77
2021/03/02 12:55:13;;;;;;;21.15;12.13;;;13.20;1.00;;;;;;4908237;29;20048;-76
2021/03/02 12:57:48;;;;;;;19.88;12.13;;;13.10;1.00;;;;;;4903128;29;20044;-77
2021/03/02 13:00:17;;;;;;;18.25;11.82;;;12.90;1.00;;;;;;4905138;29;20511;-75